, NV

(GMT )
Eureka Airport

Weather History for K05U - July, 2013

Change the Weather History Date:

Sunday, July 7, 2013

  Actual Average Record
Temperature  
Mean Temperature 73 °F -  
Max Temperature 87 °F - - ()
Min Temperature 59 °F - - ()
Cooling Degree Days 8    
Growing Degree Days 23 (Base 50)    
Moisture  
Dew Point 35 °F    
Average Humidity 24    
Maximum Humidity 35    
Minimum Humidity 13    
Precipitation  
Precipitation 0.00 in - - ()
Sea Level Pressure  
Sea Level Pressure 30.06 in    
Wind  
Wind Speed 9 mph (South)    
Max Wind Speed 26 mph    
Max Gust Speed 34 mph    
Visibility 10 miles    
Events      
Averages and records for this station are not official NWS values.
T = Trace of Precipitation, MM = Missing Value Source: NWS Daily Summary

Daily Weather History Graph

Daily Weather History Graph

Search for Another Location

Airport or City:

Trip Planner

Search our weather history database for the weather conditions in past years. The results will help you decide how hot, cold, wet, or windy it might be!

Date:

Astronomy

Jul. 07, 2013 Rise Set
Actual Time 5:23 AM PDT 8:14 PM PDT
Civil Twilight 4:51 AM PDT 8:46 PM PDT
Nautical Twilight 4:11 AM PDT 9:26 PM PDT
Astronomical Twilight 3:24 AM PDT 10:12 PM PDT
Moon 5:03 AM PDT (7/7) 7:41 PM PDT (7/7)
Length of Visible Light 15h 54m
Length of Day
14h 50m
Waning Crescent, 0% of the Moon is Illuminated
Jul 7
Waning Crescent
Jul 8
New
Jul 15
First Quarter
Jul 22
Full
Jul 29
Last Quarter

Hourly Weather History & Observations

Time (PDT) Temp. Dew Point Humidity Pressure Visibility Wind Dir Wind Speed Gust Speed Precip Events Conditions
12:10 AM 71.6 °F 32.0 °F 23% 30.02 in 10.0 mi WSW 5.8 mph - N/A   Partly Cloudy
12:30 AM 75.2 °F 32.0 °F 21% 30.02 in 10.0 mi South 11.5 mph - N/A   Clear
12:50 AM 73.4 °F 32.0 °F 22% 30.02 in 10.0 mi South 6.9 mph - N/A   Clear
1:10 AM 71.6 °F 32.0 °F 23% 30.02 in 10.0 mi South 4.6 mph - N/A   Clear
1:30 AM 69.8 °F 35.6 °F 28% 30.02 in 10.0 mi WSW 5.8 mph - N/A   Partly Cloudy
1:50 AM 68.0 °F 32.0 °F 26% 30.03 in 10.0 mi SW 5.8 mph - N/A   Partly Cloudy
2:10 AM 69.8 °F 28.4 °F 21% 30.03 in 10.0 mi SSW 5.8 mph - N/A   Clear
2:30 AM 71.6 °F 24.8 °F 17% 30.03 in 10.0 mi SSW 10.4 mph - N/A   Clear
2:50 AM 71.6 °F 23.0 °F 16% 30.03 in 10.0 mi SSW 12.7 mph - N/A   Clear
3:10 AM 69.8 °F 24.8 °F 18% 30.04 in 10.0 mi SW 8.1 mph - N/A   Clear
3:30 AM 66.2 °F 26.6 °F 23% 30.04 in 10.0 mi SSW 6.9 mph - N/A   Clear
3:50 AM 64.4 °F 26.6 °F 24% 30.04 in 10.0 mi SSW 6.9 mph - N/A   Clear
4:10 AM 62.6 °F 26.6 °F 26% 30.04 in 10.0 mi SW 8.1 mph - N/A   Clear
4:30 AM 59.0 °F 28.4 °F 31% 30.05 in 10.0 mi South 10.4 mph - N/A   Clear
4:50 AM 59.0 °F 28.4 °F 31% 30.05 in 10.0 mi South 8.1 mph - N/A   Clear
5:10 AM 60.8 °F 24.8 °F 25% 30.06 in 10.0 mi South 8.1 mph - N/A   Partly Cloudy
5:30 AM 60.8 °F 26.6 °F 27% 30.07 in 10.0 mi South 5.8 mph - N/A   Clear
5:50 AM 62.6 °F 26.6 °F 26% 30.06 in 10.0 mi South 3.5 mph - N/A   Partly Cloudy
6:10 AM 62.6 °F 26.6 °F 26% 30.07 in 10.0 mi WSW 3.5 mph - N/A   Clear
6:30 AM 62.6 °F 28.4 °F 27% 30.07 in 10.0 mi Calm Calm - N/A   Clear
6:50 AM 68.0 °F 33.8 °F 28% 30.08 in 10.0 mi Calm Calm - N/A   Clear
7:10 AM 73.4 °F 28.4 °F 19% 30.08 in 10.0 mi Calm Calm - N/A   Clear
7:30 AM 75.2 °F 28.4 °F 18% 30.09 in 10.0 mi Calm Calm - N/A   Clear
7:50 AM 77.0 °F 26.6 °F 16% 30.09 in 10.0 mi Calm Calm - N/A   Clear
8:10 AM 80.6 °F 24.8 °F 13% 30.09 in 10.0 mi Calm Calm - N/A   Clear
8:30 AM 82.4 °F 28.4 °F 14% 30.09 in 10.0 mi ESE 3.5 mph - N/A   Clear
8:50 AM 82.4 °F 30.2 °F 15% 30.08 in 10.0 mi SSE 3.5 mph - N/A   Clear
9:10 AM 84.2 °F 33.8 °F 16% 30.08 in 10.0 mi SE 8.1 mph - N/A   Clear
9:30 AM 86.0 °F 35.6 °F 17% 30.07 in 10.0 mi South 8.1 mph - N/A   Clear
9:50 AM 84.2 °F 32.0 °F 15% 30.07 in 10.0 mi SSE 16.1 mph 24.2 mph N/A   Partly Cloudy
10:10 AM 87.8 °F 35.6 °F 16% 30.07 in 10.0 mi SSE 15.0 mph 24.2 mph N/A   Partly Cloudy
10:30 AM 86.0 °F 33.8 °F 15% 30.07 in 10.0 mi SE 6.9 mph 16.1 mph N/A   Clear
10:50 AM 84.2 °F 33.8 °F 16% 30.07 in 10.0 mi South 10.4 mph 20.7 mph N/A   Partly Cloudy
11:10 AM 82.4 °F 37.4 °F 20% 30.07 in 9.0 mi SE 5.8 mph 32.2 mph N/A   Partly Cloudy
11:30 AM 87.8 °F 35.6 °F 16% 30.06 in 10.0 mi SW 8.1 mph - N/A   Partly Cloudy
11:50 AM 86.0 °F 35.6 °F 17% 30.07 in 10.0 mi South 16.1 mph 20.7 mph N/A   Partly Cloudy
12:10 PM 86.0 °F 32.0 °F 14% 30.06 in 10.0 mi SSW 8.1 mph - N/A   Clear
12:30 PM 78.8 °F 35.6 °F 21% 30.07 in 6.0 mi SE 18.4 mph 34.5 mph N/A   Clear
12:50 PM 75.2 °F 41.0 °F 29% 30.08 in 9.0 mi SE 16.1 mph 34.5 mph N/A   Clear
1:10 PM 80.6 °F 39.2 °F 23% 30.06 in 10.0 mi ESE 8.1 mph - N/A   Clear
1:30 PM 82.4 °F 37.4 °F 20% 30.05 in 10.0 mi SSE 13.8 mph 26.5 mph N/A   Clear
1:50 PM 77.0 °F 42.8 °F 29% 30.06 in 10.0 mi South 21.9 mph 31.1 mph N/A   Partly Cloudy
2:10 PM 75.2 °F 44.6 °F 34% 30.08 in 10.0 mi South 16.1 mph 23.0 mph N/A   Scattered Clouds
2:30 PM 80.6 °F 44.6 °F 28% 30.08 in 10.0 mi SSE 20.7 mph 27.6 mph N/A   Scattered Clouds
2:50 PM 80.6 °F 44.6 °F 28% 30.07 in 10.0 mi South 23.0 mph 27.6 mph N/A   Partly Cloudy
3:10 PM 82.4 °F 41.0 °F 23% 30.06 in 5.0 mi SSE 25.3 mph 32.2 mph N/A   Clear
3:30 PM 80.6 °F 42.8 °F 26% 30.06 in 5.0 mi SSE 26.5 mph 33.4 mph N/A   Clear
3:50 PM 78.8 °F 42.8 °F 28% 30.07 in 9.0 mi South 21.9 mph - N/A   Clear
4:10 PM 77.0 °F 41.0 °F 28% 30.07 in 8.0 mi South 21.9 mph 27.6 mph N/A   Clear
4:30 PM 78.8 °F 35.6 °F 21% 30.05 in 10.0 mi SSW 12.7 mph 31.1 mph N/A   Clear
4:50 PM 80.6 °F 33.8 °F 18% 30.05 in 10.0 mi South 10.4 mph - N/A   Partly Cloudy
5:10 PM 80.6 °F 35.6 °F 20% 30.05 in 10.0 mi South 13.8 mph 18.4 mph N/A   Clear
5:30 PM 80.6 °F 39.2 °F 23% 30.04 in 10.0 mi SSE 15.0 mph - N/A   Clear
5:50 PM 84.2 °F 39.2 °F 20% 30.04 in 10.0 mi SSE 15.0 mph - N/A   Clear
6:10 PM 80.6 °F 39.2 °F 23% 30.04 in 10.0 mi South 13.8 mph - N/A   Clear
6:30 PM 80.6 °F 39.2 °F 23% 30.04 in 10.0 mi South 15.0 mph 20.7 mph N/A   Clear
6:50 PM 78.8 °F 41.0 °F 26% 30.04 in 10.0 mi SSE 16.1 mph 25.3 mph N/A   Clear
7:10 PM 77.0 °F 41.0 °F 28% 30.05 in 10.0 mi South 16.1 mph 27.6 mph N/A   Clear
7:30 PM 73.4 °F 41.0 °F 31% 30.07 in 10.0 mi South 10.4 mph - N/A   Clear
7:50 PM 73.4 °F 39.2 °F 29% 30.07 in 10.0 mi Calm Calm - N/A   Clear
8:10 PM 73.4 °F 39.2 °F 29% 30.07 in 10.0 mi South 9.2 mph - N/A   Clear
8:25 PM 73.4 °F 37.4 °F 27% 30.07 in 10.0 mi SE 8.1 mph - N/A   Clear
8:50 PM 69.8 °F 39.2 °F 33% 30.08 in 10.0 mi ESE 6.9 mph - N/A   Clear
9:10 PM 68.0 °F 37.4 °F 33% 30.08 in 10.0 mi Calm Calm - N/A   Clear
9:30 PM 69.8 °F 37.4 °F 31% 30.08 in 10.0 mi East 6.9 mph - N/A   Clear
9:50 PM 69.8 °F 37.4 °F 31% 30.09 in 10.0 mi East 6.9 mph - N/A   Clear
10:10 PM 68.0 °F 39.2 °F 35% 30.09 in 10.0 mi ESE 10.4 mph - N/A   Clear
10:30 PM 69.8 °F 39.2 °F 33% 30.10 in 10.0 mi SE 8.1 mph - N/A   Clear
10:50 PM 68.0 °F 39.2 °F 35% 30.10 in 10.0 mi SE 10.4 mph - N/A   Clear
11:10 PM 68.0 °F 39.2 °F 35% 30.10 in 10.0 mi SE 12.7 mph - N/A   Clear
11:30 PM 68.0 °F 39.2 °F 35% 30.11 in 10.0 mi South 8.1 mph - N/A   Clear
11:50 PM 68.0 °F 39.2 °F 35% 30.12 in 10.0 mi SSE 8.1 mph - N/A   Clear